Danville, IL

3:47 AM CDT on March 27, 2015 (GMT -0500)
Danville Area Community College | | Change Station
CLOSE
Current Station
Personal Weather Station
Location: Danville, IL
Elevation: 656 ft
Nearby Weather Stations

Elev 656 ft 40.13 °N, 87.59 °W | Updated 28 seconds ago

Overcast
Overcast
31.8 °F
Feels Like 32 °F
N
0.9
Wind Variable Wind from NE
Gusts 4.0 mph

Today
High -- | Low -- °F
--% Chance of Precip.
Yesterday
High -- | Low -- °F
Precip. -- in
6:42 AM 7:09 PM
Waxing Crescent, 50% visible
Pressure 30.01 in
Visibility 10.0 miles
Clouds Scattered Clouds 2500 ft
Mostly Cloudy 3000 ft
Mostly Cloudy 12000 ft
Windchill 32 °F
Dew Point 28 °F
Humidity 85%
Rainfall 0.00 in
Snow Depth Not available.
UV 0 out of 12
Pollen .70 out of 12
Air Quality Not available.
Flu Activity Not available.
METAR KDNV 270835Z AUTO 02007KT 10SM SCT025 BKN030 BKN120 M01/M03 A3001 RMK AO2 T10101026

More Conditions Fewer Conditions

Pressure 30.01 in
Visibility 10.0 miles
Clouds Scattered Clouds 2500 ft
Mostly Cloudy 3000 ft
Mostly Cloudy 12000 ft
Windchill 32 °F
Dew Point 28 °F
Humidity 85%
Rainfall 0.00 in
Snow Depth Not available.
UV 0 out of 12
Pollen .70 out of 12
Air Quality Not available.
Flu Activity Not available.
METAR KDNV 270835Z AUTO 02007KT 10SM SCT025 BKN030 BKN120 M01/M03 A3001 RMK AO2 T10101026

More Conditions Fewer Conditions

10-Day Weather Forecast

Almanac

Astronomy

Mar. 27, 2015 Rise Set
Actual Time
Civil Twilight
Nautical Twilight
Astronomical Twilight
Moon
Length of Visible Light
Length of Day
Tomorrow will be .
, % of the Moon is Illuminated

Today's Extremes

State Highs State Lows

Community

WunderPhotos

Upload Photos

1,808,705 photos uploaded!

WunderBlogs® & News

Nearby

Air Quality

  Air Quality AQ Index Pollutant
Not available.

Snow Depth

Station Depth Elevation

Earthquake Activity

City Distance Mag. Time & Date
Minimum magnitude displayed is 2.5.

Coastal Water Temperatures

Place Temperature

Stations

Nearby Weather Stations

Station Location Temp. Windchill Dew Point Humidity Wind Precip. Elev Updated Type